sensor_id;sensor_type;location;lat;lon;timestamp;temperature;humidity
3402;DHT22;1714;49.756;8.610;2023-08-07T00:09:19;13.70;1.00
3402;DHT22;1714;49.756;8.610;2023-08-07T00:19:53;13.60;1.00
3402;DHT22;1714;49.756;8.610;2023-08-07T00:30:28;13.70;1.00
3402;DHT22;1714;49.756;8.610;2023-08-07T00:41:03;13.70;1.00
3402;DHT22;1714;49.756;8.610;2023-08-07T00:51:39;13.70;1.00
3402;DHT22;1714;49.756;8.610;2023-08-07T01:02:14;13.70;1.00
3402;DHT22;1714;49.756;8.610;2023-08-07T01:12:55;13.60;1.00
3402;DHT22;1714;49.756;8.610;2023-08-07T01:23:34;13.70;1.00
3402;DHT22;1714;49.756;8.610;2023-08-07T01:34:10;13.60;1.00
3402;DHT22;1714;49.756;8.610;2023-08-07T01:44:47;13.60;1.00
3402;DHT22;1714;49.756;8.610;2023-08-07T01:55:23;13.60;1.00
3402;DHT22;1714;49.756;8.610;2023-08-07T02:05:58;13.50;1.00
3402;DHT22;1714;49.756;8.610;2023-08-07T02:16:33;13.40;1.00
3402;DHT22;1714;49.756;8.610;2023-08-07T02:27:08;13.40;1.00
3402;DHT22;1714;49.756;8.610;2023-08-07T02:37:43;13.40;1.00
3402;DHT22;1714;49.756;8.610;2023-08-07T02:48:18;13.40;1.00
3402;DHT22;1714;49.756;8.610;2023-08-07T02:58:53;13.50;1.00
3402;DHT22;1714;49.756;8.610;2023-08-07T03:09:28;13.40;1.00
3402;DHT22;1714;49.756;8.610;2023-08-07T03:20:03;13.40;1.00
3402;DHT22;1714;49.756;8.610;2023-08-07T03:30:39;13.40;1.00
3402;DHT22;1714;49.756;8.610;2023-08-07T03:41:15;13.60;1.00
3402;DHT22;1714;49.756;8.610;2023-08-07T03:51:50;13.50;1.00
3402;DHT22;1714;49.756;8.610;2023-08-07T04:02:27;13.50;1.00
3402;DHT22;1714;49.756;8.610;2023-08-07T04:13:03;13.40;1.00
3402;DHT22;1714;49.756;8.610;2023-08-07T04:23:38;13.50;1.00
3402;DHT22;1714;49.756;8.610;2023-08-07T04:34:16;13.50;1.00
3402;DHT22;1714;49.756;8.610;2023-08-07T04:44:51;13.50;1.00
3402;DHT22;1714;49.756;8.610;2023-08-07T04:55:26;13.50;1.00
3402;DHT22;1714;49.756;8.610;2023-08-07T05:06:01;13.50;1.00
3402;DHT22;1714;49.756;8.610;2023-08-07T05:16:36;13.70;1.00
3402;DHT22;1714;49.756;8.610;2023-08-07T05:27:11;13.70;1.00
3402;DHT22;1714;49.756;8.610;2023-08-07T05:37:46;13.70;1.00
3402;DHT22;1714;49.756;8.610;2023-08-07T05:48:21;13.80;1.00
3402;DHT22;1714;49.756;8.610;2023-08-07T05:58:56;13.70;1.00
3402;DHT22;1714;49.756;8.610;2023-08-07T06:09:31;13.70;1.00
3402;DHT22;1714;49.756;8.610;2023-08-07T06:20:08;13.70;1.00
3402;DHT22;1714;49.756;8.610;2023-08-07T06:30:45;13.70;1.00
3402;DHT22;1714;49.756;8.610;2023-08-07T06:41:20;13.80;1.00
3402;DHT22;1714;49.756;8.610;2023-08-07T06:51:55;13.60;1.00
3402;DHT22;1714;49.756;8.610;2023-08-07T07:02:31;13.50;1.00
3402;DHT22;1714;49.756;8.610;2023-08-07T07:13:07;13.60;1.00
3402;DHT22;1714;49.756;8.610;2023-08-07T07:23:44;13.60;1.00
3402;DHT22;1714;49.756;8.610;2023-08-07T07:34:19;13.80;1.00
3402;DHT22;1714;49.756;8.610;2023-08-07T07:44:53;13.80;1.00
3402;DHT22;1714;49.756;8.610;2023-08-07T07:55:29;13.80;1.00
3402;DHT22;1714;49.756;8.610;2023-08-07T08:06:04;13.90;1.00
3402;DHT22;1714;49.756;8.610;2023-08-07T08:16:39;13.90;1.00
3402;DHT22;1714;49.756;8.610;2023-08-07T08:27:14;13.80;1.00
3402;DHT22;1714;49.756;8.610;2023-08-07T08:37:49;14.00;1.00
3402;DHT22;1714;49.756;8.610;2023-08-07T08:48:24;14.20;1.00
3402;DHT22;1714;49.756;8.610;2023-08-07T08:58:59;14.10;1.00
3402;DHT22;1714;49.756;8.610;2023-08-07T09:09:35;14.10;1.00
3402;DHT22;1714;49.756;8.610;2023-08-07T09:20:10;13.90;1.00
3402;DHT22;1714;49.756;8.610;2023-08-07T09:30:48;14.00;1.00
3402;DHT22;1714;49.756;8.610;2023-08-07T09:41:23;14.00;1.00
3402;DHT22;1714;49.756;8.610;2023-08-07T09:51:57;14.20;1.00
3402;DHT22;1714;49.756;8.610;2023-08-07T10:02:32;14.30;1.00
3402;DHT22;1714;49.756;8.610;2023-08-07T10:13:07;14.20;1.00
3402;DHT22;1714;49.756;8.610;2023-08-07T10:23:43;14.10;1.00
3402;DHT22;1714;49.756;8.610;2023-08-07T10:34:19;14.00;1.00
3402;DHT22;1714;49.756;8.610;2023-08-07T10:44:54;14.20;1.00
3402;DHT22;1714;49.756;8.610;2023-08-07T10:55:55;14.30;1.00
3402;DHT22;1714;49.756;8.610;2023-08-07T11:06:35;14.10;1.00
3402;DHT22;1714;49.756;8.610;2023-08-07T11:17:11;14.50;1.00
3402;DHT22;1714;49.756;8.610;2023-08-07T11:27:46;14.60;1.00
3402;DHT22;1714;49.756;8.610;2023-08-07T11:49:05;15.10;1.00
3402;DHT22;1714;49.756;8.610;2023-08-07T11:59:41;15.50;1.00
3402;DHT22;1714;49.756;8.610;2023-08-07T12:10:15;15.50;1.00
3402;DHT22;1714;49.756;8.610;2023-08-07T12:20:50;15.50;1.00
3402;DHT22;1714;49.756;8.610;2023-08-07T12:31:28;15.30;1.00
3402;DHT22;1714;49.756;8.610;2023-08-07T12:42:03;15.20;1.00
3402;DHT22;1714;49.756;8.610;2023-08-07T12:52:42;15.20;1.00
3402;DHT22;1714;49.756;8.610;2023-08-07T13:03:18;15.40;1.00
3402;DHT22;1714;49.756;8.610;2023-08-07T13:13:52;15.50;1.00
3402;DHT22;1714;49.756;8.610;2023-08-07T13:24:27;15.90;1.00
3402;DHT22;1714;49.756;8.610;2023-08-07T13:35:02;16.60;1.00
3402;DHT22;1714;49.756;8.610;2023-08-07T13:45:37;17.50;1.00
3402;DHT22;1714;49.756;8.610;2023-08-07T13:56:12;18.10;1.00
3402;DHT22;1714;49.756;8.610;2023-08-07T14:06:48;17.80;1.00
3402;DHT22;1714;49.756;8.610;2023-08-07T14:17:23;18.10;1.00
3402;DHT22;1714;49.756;8.610;2023-08-07T14:27:57;18.50;1.00
3402;DHT22;1714;49.756;8.610;2023-08-07T14:38:32;18.60;1.00
3402;DHT22;1714;49.756;8.610;2023-08-07T14:49:07;19.30;1.00
3402;DHT22;1714;49.756;8.610;2023-08-07T14:59:42;19.60;1.00
3402;DHT22;1714;49.756;8.610;2023-08-07T15:10:17;19.50;1.00
3402;DHT22;1714;49.756;8.610;2023-08-07T15:20:52;18.90;1.00
3402;DHT22;1714;49.756;8.610;2023-08-07T15:31:27;19.80;1.00
3402;DHT22;1714;49.756;8.610;2023-08-07T15:42:02;20.40;1.00
3402;DHT22;1714;49.756;8.610;2023-08-07T15:52:38;20.60;1.00
3402;DHT22;1714;49.756;8.610;2023-08-07T16:03:13;20.40;1.00
3402;DHT22;1714;49.756;8.610;2023-08-07T16:13:48;20.10;1.00
3402;DHT22;1714;49.756;8.610;2023-08-07T16:24:27;20.10;1.00
3402;DHT22;1714;49.756;8.610;2023-08-07T16:35:03;20.50;1.00
3402;DHT22;1714;49.756;8.610;2023-08-07T16:45:39;20.40;1.00
3402;DHT22;1714;49.756;8.610;2023-08-07T16:56:14;20.00;1.00
3402;DHT22;1714;49.756;8.610;2023-08-07T17:06:49;19.90;1.00
3402;DHT22;1714;49.756;8.610;2023-08-07T17:17:25;19.80;1.00
3402;DHT22;1714;49.756;8.610;2023-08-07T17:27:59;20.00;1.00
3402;DHT22;1714;49.756;8.610;2023-08-07T17:38:34;19.90;1.00
3402;DHT22;1714;49.756;8.610;2023-08-07T17:49:09;19.60;1.00
3402;DHT22;1714;49.756;8.610;2023-08-07T17:59:44;19.30;1.00
3402;DHT22;1714;49.756;8.610;2023-08-07T18:10:20;18.80;1.00
3402;DHT22;1714;49.756;8.610;2023-08-07T18:20:55;18.50;1.00
3402;DHT22;1714;49.756;8.610;2023-08-07T18:31:30;18.30;1.00
3402;DHT22;1714;49.756;8.610;2023-08-07T18:42:04;18.20;1.00
3402;DHT22;1714;49.756;8.610;2023-08-07T18:52:40;17.80;1.00
3402;DHT22;1714;49.756;8.610;2023-08-07T19:03:14;17.60;1.00
3402;DHT22;1714;49.756;8.610;2023-08-07T19:13:52;17.40;1.00
3402;DHT22;1714;49.756;8.610;2023-08-07T19:24:27;17.00;1.00
3402;DHT22;1714;49.756;8.610;2023-08-07T19:35:02;16.80;1.00
3402;DHT22;1714;49.756;8.610;2023-08-07T19:45:37;16.50;1.00
3402;DHT22;1714;49.756;8.610;2023-08-07T19:56:12;16.40;1.00
3402;DHT22;1714;49.756;8.610;2023-08-07T20:06:47;16.10;1.00
3402;DHT22;1714;49.756;8.610;2023-08-07T20:17:22;15.90;1.00
3402;DHT22;1714;49.756;8.610;2023-08-07T20:27:57;15.80;1.00
3402;DHT22;1714;49.756;8.610;2023-08-07T20:38:33;15.70;1.00
3402;DHT22;1714;49.756;8.610;2023-08-07T20:49:08;15.70;1.00
3402;DHT22;1714;49.756;8.610;2023-08-07T20:59:43;15.60;1.00
3402;DHT22;1714;49.756;8.610;2023-08-07T21:10:19;15.40;1.00
3402;DHT22;1714;49.756;8.610;2023-08-07T21:20:57;15.30;1.00
3402;DHT22;1714;49.756;8.610;2023-08-07T21:31:39;15.10;1.00
3402;DHT22;1714;49.756;8.610;2023-08-07T21:42:16;15.00;1.00
3402;DHT22;1714;49.756;8.610;2023-08-07T21:52:54;14.80;1.00
3402;DHT22;1714;49.756;8.610;2023-08-07T22:03:32;14.80;1.00
3402;DHT22;1714;49.756;8.610;2023-08-07T22:14:10;14.80;1.00
3402;DHT22;1714;49.756;8.610;2023-08-07T22:24:46;14.80;1.00
3402;DHT22;1714;49.756;8.610;2023-08-07T22:35:21;14.70;1.00
3402;DHT22;1714;49.756;8.610;2023-08-07T22:45:57;14.70;1.00
3402;DHT22;1714;49.756;8.610;2023-08-07T22:56:32;14.70;1.00
3402;DHT22;1714;49.756;8.610;2023-08-07T23:07:07;14.60;1.00
3402;DHT22;1714;49.756;8.610;2023-08-07T23:17:42;14.60;1.00
3402;DHT22;1714;49.756;8.610;2023-08-07T23:28:16;14.50;1.00
3402;DHT22;1714;49.756;8.610;2023-08-07T23:38:51;14.40;1.00
3402;DHT22;1714;49.756;8.610;2023-08-07T23:49:26;14.60;1.00
